createdAt,value
2023-02-21T00:00:00.219Z,44.4
2023-02-21T00:05:00.275Z,42.9
2023-02-21T00:10:00.211Z,41.5
2023-02-21T00:15:00.224Z,47.1
2023-02-21T00:20:00.226Z,37.6
2023-02-21T00:25:00.236Z,37.2
2023-02-21T00:30:00.227Z,38.1
2023-02-21T00:35:00.250Z,36.6
2023-02-21T00:40:00.237Z,43.0
2023-02-21T00:45:00.224Z,36.2
2023-02-21T00:50:00.225Z,36.6
2023-02-21T00:55:00.212Z,39.2
2023-02-21T01:00:00.221Z,39.3
2023-02-21T01:05:00.235Z,39.6
2023-02-21T01:10:00.229Z,42.2
2023-02-21T01:15:00.243Z,42.7
2023-02-21T01:20:00.211Z,44.2
2023-02-21T01:25:00.223Z,41.5
2023-02-21T01:30:00.231Z,41.0
2023-02-21T01:35:00.224Z,43.2
2023-02-21T01:40:00.246Z,40.1
2023-02-21T01:45:00.236Z,37.9
2023-02-21T01:50:00.235Z,35.7
2023-02-21T01:55:00.223Z,40.3
2023-02-21T02:00:00.227Z,42.4
2023-02-21T02:05:00.224Z,38.3
2023-02-21T02:10:00.238Z,35.7
2023-02-21T02:15:00.229Z,42.0
2023-02-21T02:20:00.232Z,39.8
2023-02-21T02:25:00.236Z,42.7
2023-02-21T02:30:00.216Z,46.6
2023-02-21T02:35:00.224Z,39.7
2023-02-21T02:40:00.235Z,47.9
2023-02-21T02:45:00.236Z,39.6
2023-02-21T02:50:00.227Z,48.6
2023-02-21T02:55:00.218Z,50.5
2023-02-21T03:00:00.222Z,46.2
2023-02-21T03:05:00.225Z,49.0
2023-02-21T03:10:00.223Z,48.7
2023-02-21T03:15:00.215Z,47.1
2023-02-21T03:20:00.228Z,41.8
2023-02-21T03:25:00.229Z,47.4
2023-02-21T03:30:00.232Z,44.7
2023-02-21T03:35:00.221Z,37.6
2023-02-21T03:40:00.216Z,42.8
2023-02-21T03:45:00.270Z,47.0
2023-02-21T03:50:00.228Z,44.6
2023-02-21T03:55:00.228Z,44.2
2023-02-21T04:00:00.257Z,49.0
2023-02-21T04:05:00.263Z,48.9
2023-02-21T04:10:00.266Z,46.8
2023-02-21T04:15:00.244Z,56.4
2023-02-21T04:20:00.244Z,49.2
2023-02-21T04:25:00.224Z,52.3
2023-02-21T04:30:00.223Z,53.3
2023-02-21T04:35:00.225Z,56.3
2023-02-21T04:40:00.224Z,55.0
2023-02-21T04:45:00.873Z,52.3
2023-02-21T04:50:00.231Z,54.4
2023-02-21T04:55:00.226Z,57.7
2023-02-21T05:00:00.229Z,59.5
2023-02-21T05:05:00.293Z,56.9
2023-02-21T05:10:00.223Z,62.0
2023-02-21T05:15:00.268Z,56.9
2023-02-21T05:20:00.212Z,57.8
2023-02-21T05:25:00.241Z,57.6
2023-02-21T05:30:00.229Z,55.8
2023-02-21T05:35:00.302Z,0.0
2023-02-21T05:40:00.230Z,59.4
2023-02-21T05:45:00.229Z,0.0
2023-02-21T05:50:00.230Z,64.2
2023-02-21T05:55:00.226Z,63.0
2023-02-21T06:00:00.249Z,63.7
2023-02-21T06:05:00.239Z,71.7
2023-02-21T06:10:00.231Z,61.9
2023-02-21T06:15:00.239Z,66.8
2023-02-21T06:20:00.223Z,68.9
2023-02-21T06:25:00.232Z,66.8
2023-02-21T06:30:00.241Z,59.5
2023-02-21T06:35:00.226Z,63.7
2023-02-21T06:40:00.221Z,71.6
2023-02-21T06:45:00.284Z,68.5
2023-02-21T06:50:00.209Z,74.7
2023-02-21T06:55:00.240Z,69.5
2023-02-21T07:00:00.266Z,77.0
2023-02-21T07:05:00.273Z,69.6
2023-02-21T07:10:00.233Z,63.7
2023-02-21T07:15:00.255Z,67.2
2023-02-21T07:20:00.234Z,72.9
2023-02-21T07:25:00.223Z,74.3
2023-02-21T07:30:00.229Z,74.3
2023-02-21T07:35:00.210Z,74.4
2023-02-21T07:40:00.221Z,69.5
2023-02-21T07:45:00.221Z,65.2
2023-02-21T07:50:00.231Z,59.0
2023-02-21T07:55:00.227Z,66.4
2023-02-21T08:00:00.210Z,61.4
2023-02-21T08:05:00.301Z,56.8
2023-02-21T08:10:00.223Z,66.3
2023-02-21T08:15:00.236Z,60.5
2023-02-21T08:20:00.225Z,52.9
2023-02-21T08:25:00.226Z,57.6
2023-02-21T08:30:00.216Z,54.0
2023-02-21T08:35:00.211Z,56.6
2023-02-21T08:40:00.224Z,53.9
2023-02-21T08:45:00.221Z,53.9
2023-02-21T08:50:00.228Z,53.4
2023-02-21T08:55:00.233Z,48.2
2023-02-21T09:00:00.222Z,51.5
2023-02-21T09:05:00.255Z,52.7
2023-02-21T09:10:01.317Z,60.5
2023-02-21T09:15:00.217Z,55.1
2023-02-21T09:20:00.237Z,57.7
2023-02-21T09:25:00.238Z,54.1
2023-02-21T09:30:00.231Z,53.3
2023-02-21T09:35:00.252Z,59.7
2023-02-21T09:40:00.258Z,60.9
2023-02-21T09:45:00.264Z,53.8
2023-02-21T09:50:00.244Z,55.8
2023-02-21T09:55:00.238Z,51.3
2023-02-21T10:00:00.220Z,56.7
2023-02-21T10:05:00.332Z,54.2
2023-02-21T10:10:00.257Z,57.0
2023-02-21T10:15:00.223Z,56.3
2023-02-21T10:20:00.216Z,57.9
2023-02-21T10:25:00.230Z,55.0
2023-02-21T10:30:00.221Z,45.0
2023-02-21T10:35:00.287Z,48.4
2023-02-21T10:40:00.235Z,47.9
2023-02-21T10:45:00.224Z,49.1
2023-02-21T10:50:00.226Z,40.5
2023-02-21T10:55:00.214Z,49.5
2023-02-21T11:00:00.242Z,43.2
2023-02-21T11:05:00.226Z,39.8
2023-02-21T11:10:00.242Z,39.0
2023-02-21T11:15:00.217Z,38.1
2023-02-21T11:20:00.247Z,38.9
2023-02-21T11:25:00.228Z,41.3
2023-02-21T11:30:00.233Z,41.9
2023-02-21T11:35:00.226Z,42.1
2023-02-21T11:40:00.207Z,38.5
2023-02-21T11:45:00.225Z,42.4
2023-02-21T11:50:00.249Z,43.0
2023-02-21T11:55:00.239Z,41.1
2023-02-21T12:00:00.247Z,40.2
2023-02-21T12:05:00.231Z,39.3
2023-02-21T12:10:00.222Z,41.2
2023-02-21T12:15:00.228Z,40.1
2023-02-21T12:20:00.239Z,41.7
2023-02-21T12:25:00.221Z,47.5
2023-02-21T12:30:00.220Z,46.9
2023-02-21T12:35:00.230Z,46.7
2023-02-21T12:40:00.228Z,36.9
2023-02-21T12:45:00.271Z,36.8
2023-02-21T12:50:00.229Z,40.0
2023-02-21T12:55:00.243Z,42.0
2023-02-21T13:00:00.294Z,40.4
2023-02-21T13:05:00.226Z,37.9
2023-02-21T13:10:00.222Z,40.5
2023-02-21T13:15:00.228Z,39.5
2023-02-21T13:20:00.263Z,38.7
2023-02-21T13:25:00.215Z,39.8
2023-02-21T13:30:00.227Z,36.9
2023-02-21T13:35:00.258Z,39.1
2023-02-21T13:40:00.225Z,39.4
2023-02-21T13:45:00.243Z,33.1
2023-02-21T13:50:00.223Z,40.7
2023-02-21T13:55:00.223Z,35.3
2023-02-21T14:00:00.211Z,33.7
2023-02-21T14:05:00.260Z,30.8
2023-02-21T14:10:00.234Z,26.1
2023-02-21T14:15:00.224Z,34.6
2023-02-21T14:20:00.235Z,30.9
2023-02-21T14:25:00.228Z,28.2
2023-02-21T14:30:00.236Z,22.4
2023-02-21T14:35:00.229Z,27.2
2023-02-21T14:40:00.253Z,24.7
2023-02-21T14:45:00.228Z,24.2
2023-02-21T14:50:00.226Z,19.6
2023-02-21T14:55:00.227Z,24.9
2023-02-21T15:00:00.242Z,21.3
2023-02-21T15:05:00.224Z,21.9
2023-02-21T15:10:00.244Z,22.7
2023-02-21T15:15:00.231Z,19.5
2023-02-21T15:20:00.224Z,22.3
2023-02-21T15:25:00.262Z,19.8
2023-02-21T15:30:00.216Z,20.7
2023-02-21T15:35:00.235Z,18.0
2023-02-21T15:40:00.232Z,17.9
2023-02-21T15:45:00.220Z,16.2
2023-02-21T15:50:00.215Z,16.5
2023-02-21T15:55:00.218Z,15.4
2023-02-21T16:00:00.264Z,16.3
2023-02-21T16:05:00.215Z,19.8
2023-02-21T16:10:00.375Z,14.7
2023-02-21T16:15:00.233Z,15.8
2023-02-21T16:20:00.428Z,15.8
2023-02-21T16:25:00.212Z,15.8
2023-02-21T16:30:01.410Z,16.7
2023-02-21T16:35:00.227Z,15.3
2023-02-21T16:40:00.232Z,15.0
2023-02-21T16:45:00.217Z,13.3
2023-02-21T16:50:00.236Z,15.1
2023-02-21T16:55:00.243Z,12.0
2023-02-21T17:00:00.225Z,12.1
2023-02-21T17:05:00.217Z,17.7
2023-02-21T17:10:00.220Z,13.0
2023-02-21T17:15:00.235Z,15.8
2023-02-21T17:20:00.243Z,18.0
2023-02-21T17:25:00.230Z,18.7
2023-02-21T17:30:00.249Z,20.8
2023-02-21T17:35:00.219Z,21.5
2023-02-21T17:40:00.229Z,21.0
2023-02-21T17:45:00.341Z,0.0
2023-02-21T17:50:02.764Z,25.0
2023-02-21T17:55:00.222Z,27.1
2023-02-21T18:00:00.225Z,25.6
2023-02-21T18:05:00.345Z,0.0
2023-02-21T18:10:00.231Z,0.0
2023-02-21T18:15:00.305Z,27.4
2023-02-21T18:20:00.224Z,27.1
2023-02-21T18:25:00.228Z,24.9
2023-02-21T18:30:00.237Z,25.7
2023-02-21T18:35:00.231Z,25.2
2023-02-21T18:40:00.275Z,25.9
2023-02-21T18:45:00.259Z,25.9
2023-02-21T18:50:00.254Z,24.7
2023-02-21T18:55:00.268Z,28.9
2023-02-21T19:00:00.276Z,28.1
2023-02-21T19:05:00.226Z,27.7
2023-02-21T19:10:00.231Z,20.8
2023-02-21T19:15:00.234Z,22.1
2023-02-21T19:20:00.247Z,24.0
2023-02-21T19:25:00.222Z,24.2
2023-02-21T19:30:00.236Z,24.2
2023-02-21T19:35:00.218Z,27.6
2023-02-21T19:40:00.227Z,42.9
2023-02-21T19:45:00.229Z,35.1
2023-02-21T19:50:00.233Z,22.7
2023-02-21T19:55:00.268Z,21.6
2023-02-21T20:00:00.237Z,21.3
2023-02-21T20:05:00.236Z,24.3
2023-02-21T20:10:00.224Z,23.8
2023-02-21T20:15:00.231Z,24.1
2023-02-21T20:20:00.241Z,25.4
2023-02-21T20:25:00.236Z,25.3
2023-02-21T20:30:00.233Z,26.7
2023-02-21T20:35:00.261Z,22.7
2023-02-21T20:40:00.219Z,22.7
2023-02-21T20:45:00.231Z,21.8
2023-02-21T20:50:00.238Z,23.0
2023-02-21T20:55:00.241Z,22.4
2023-02-21T21:00:00.243Z,22.9
2023-02-21T21:05:00.213Z,21.7
2023-02-21T21:10:00.220Z,24.5
2023-02-21T21:15:00.268Z,26.6
2023-02-21T21:20:00.231Z,28.0
2023-02-21T21:25:00.227Z,27.2
2023-02-21T21:30:00.230Z,28.6
2023-02-21T21:35:00.262Z,28.1
2023-02-21T21:40:00.231Z,27.5
2023-02-21T21:45:00.215Z,24.3
2023-02-21T21:50:00.252Z,27.4
2023-02-21T21:55:00.258Z,27.1
2023-02-21T22:00:00.262Z,28.2
2023-02-21T22:05:00.253Z,28.8
2023-02-21T22:10:00.227Z,31.4
2023-02-21T22:15:00.248Z,30.3
2023-02-21T22:20:00.237Z,27.9
2023-02-21T22:25:00.239Z,26.5
2023-02-21T22:30:00.235Z,26.3
2023-02-21T22:35:00.240Z,25.4
2023-02-21T22:40:00.224Z,0.0
2023-02-21T22:45:00.225Z,26.5
2023-02-21T22:50:00.219Z,27.1
2023-02-21T22:55:00.241Z,26.3
2023-02-21T23:00:00.236Z,20.0
2023-02-21T23:05:00.289Z,21.8
2023-02-21T23:10:00.232Z,23.1
2023-02-21T23:15:00.219Z,22.8
2023-02-21T23:20:00.220Z,20.7
2023-02-21T23:25:00.221Z,20.8
2023-02-21T23:30:00.843Z,24.5
2023-02-21T23:35:00.220Z,22.5
2023-02-21T23:40:00.249Z,22.0
2023-02-21T23:45:00.228Z,20.2
2023-02-21T23:50:00.238Z,23.5
2023-02-21T23:55:00.250Z,21.7
